Time;durP1;ratioP1;P1;durP2;ratioP2;P2;SDS_P1;SDS_P2;PMS_P1;PMS_P2;Temp;Humidity;BMP_temperature;BMP_pressure;BME280_temperature;BME280_humidity;BME280_pressure;Samples;Min_cycle;Max_cycle;Signal;HPM_P1;HPM_P2
2022/08/22 00:00:33;;;;;;;12.73;10.70;;;;;;;22.75;100.00;100784.44;2055788;28;20266;-69
2022/08/22 00:01:47;;;;;;;11.80;10.60;;;;;;;22.53;100.00;100742.06;2055594;28;20183;-68
2022/08/22 00:03:09;;;;;;;15.30;11.07;;;;;;;22.89;100.00;100799.59;2053953;28;20220;-68
2022/08/22 00:04:20;;;;;;;14.40;11.40;;;;;;;22.36;100.00;100727.09;2054863;28;20210;-68
2022/08/22 00:05:36;;;;;;;13.30;10.57;;;;;;;22.88;100.00;100790.34;2054305;28;20544;-68
2022/08/22 00:07:00;;;;;;;14.90;11.37;;;;;;;22.89;100.00;100791.13;2055054;28;20194;-69
2022/08/22 00:08:30;;;;;;;12.50;11.20;;;;;;;22.86;100.00;100790.09;2054937;28;20261;-69
2022/08/22 00:09:45;;;;;;;12.77;10.33;;;;;;;22.90;100.00;100790.63;2022204;29;20241;-68
2022/08/22 00:10:46;;;;;;;12.93;11.17;;;;;;;22.90;100.00;100776.50;2055666;28;20184;-68
2022/08/22 00:12:13;;;;;;;12.47;11.10;;;;;;;22.92;100.00;100775.97;2055801;28;20199;-68
2022/08/22 00:13:21;;;;;;;11.97;10.87;;;;;;;22.70;100.00;100747.69;2044784;28;20203;-68
2022/08/22 00:14:36;;;;;;;15.07;10.80;;;;;;;22.95;100.00;100780.59;2055178;28;20178;-68
2022/08/22 00:15:43;;;;;;;11.77;10.43;;;;;;;22.95;100.00;100780.59;2044888;28;20187;-69
2022/08/22 00:17:10;;;;;;;12.60;10.10;;;;;;;22.97;100.00;100778.03;2047415;28;20540;-68
2022/08/22 00:18:17;;;;;;;13.10;10.23;;;;;;;22.99;100.00;100766.97;2055599;28;20580;-68
2022/08/22 00:19:43;;;;;;;10.23;9.20;;;;;;;22.96;100.00;100765.94;2055688;28;20224;-68
2022/08/22 00:20:45;;;;;;;10.70;9.57;;;;;;;22.95;100.00;100760.81;2055549;28;20257;-68
2022/08/22 00:21:56;;;;;;;12.70;9.70;;;;;;;22.96;100.00;100759.53;2055839;28;20277;-68
2022/08/22 00:23:31;;;;;;;9.97;9.07;;;;;;;22.96;100.00;100751.81;2055483;28;20262;-68
2022/08/22 00:24:46;;;;;;;13.60;10.47;;;;;;;22.94;100.00;100748.75;2055254;28;20190;-69
2022/08/22 00:26:22;;;;;;;13.73;10.13;;;;;;;22.95;100.00;100755.16;2054439;28;20185;-68
2022/08/22 00:27:32;;;;;;;13.43;9.93;;;;;;;22.92;100.00;100756.97;2043056;28;20195;-68
2022/08/22 00:28:35;;;;;;;11.70;10.43;;;;;;;22.90;100.00;100762.38;2054061;28;20226;-69
2022/08/22 00:29:56;;;;;;;13.00;10.70;;;;;;;22.86;100.00;100750.53;2046657;29;20298;-68
2022/08/22 00:31:20;;;;;;;12.10;10.70;;;;;;;22.84;100.00;100752.34;2050251;28;20187;-68
2022/08/22 00:32:42;;;;;;;12.03;9.40;;;;;;;22.76;100.00;100754.91;2056401;28;20226;-69
2022/08/22 00:33:54;;;;;;;14.23;9.20;;;;;;;22.74;100.00;100757.47;2054392;28;20187;-68
2022/08/22 00:35:06;;;;;;;17.63;9.70;;;;;;;22.73;100.00;100761.56;2054283;28;20726;-68
2022/08/22 00:36:30;;;;;;;13.63;9.73;;;;;;;22.19;100.00;100692.44;2054194;28;20191;-69
2022/08/22 00:37:38;;;;;;;13.97;9.43;;;;;;;22.71;100.00;100764.16;2055155;28;20171;-68
2022/08/22 00:38:45;;;;;;;12.00;9.50;;;;;;;22.69;100.00;100760.28;2055535;28;20238;-68
2022/08/22 00:39:57;;;;;;;12.10;9.60;;;;;;;22.68;100.00;100758.75;2055446;28;20194;-68
2022/08/22 00:41:21;;;;;;;11.67;9.97;;;;;;;22.29;100.00;100701.41;2055397;28;20186;-68
2022/08/22 00:43:03;;;;;;;12.53;9.70;;;;;;;22.61;100.00;100756.44;2055209;28;20193;-68
2022/08/22 00:44:48;;;;;;;14.90;10.00;;;;;;;22.59;100.00;100765.44;2055059;28;20213;-68
2022/08/22 00:46:26;;;;;;;11.53;10.07;;;;;;;22.56;100.00;100757.97;2036548;29;20202;-69
2022/08/22 00:47:45;;;;;;;14.83;10.33;;;;;;;22.52;100.00;100756.69;2039436;29;20203;-68
2022/08/22 00:48:56;;;;;;;16.27;9.77;;;;;;;21.86;100.00;100658.47;2038604;29;20196;-69
2022/08/22 00:50:22;;;;;;;15.70;9.93;;;;;;;22.48;100.00;100764.63;2038564;29;20196;-69
2022/08/22 00:51:41;;;;;;;13.30;10.00;;;;;;;22.48;100.00;100761.81;2046160;28;20206;-68
2022/08/22 00:53:15;;;;;;;17.83;10.30;;;;;;;21.79;100.00;100658.97;2055318;28;20190;-68
2022/08/22 00:54:34;;;;;;;12.30;10.30;;;;;;;22.46;100.00;100764.38;2054395;28;20191;-69
2022/08/22 00:55:50;;;;;;;11.43;10.23;;;;;;;22.38;100.00;100761.25;2053039;28;20182;-68
2022/08/22 00:57:17;;;;;;;10.93;9.80;;;;;;;22.30;100.00;100757.38;2047892;29;20221;-68
2022/08/22 00:58:59;;;;;;;13.03;10.90;;;;;;;22.27;100.00;100757.63;2043896;28;20439;-68
2022/08/22 01:00:19;;;;;;;14.23;10.83;;;;;;;22.27;100.00;100755.56;2056532;28;20198;-69
2022/08/22 01:01:35;;;;;;;13.37;10.97;;;;;;;22.30;100.00;100765.06;2051654;28;20686;-68
2022/08/22 01:02:48;;;;;;;14.93;11.10;;;;;;;22.33;100.00;100767.66;2050345;28;20183;-68
2022/08/22 01:04:12;;;;;;;16.33;10.97;;;;;;;22.36;100.00;100771.53;2055298;28;20191;-68
2022/08/22 01:05:40;;;;;;;14.23;10.60;;;;;;;22.39;100.00;100773.31;2055962;28;20574;-69
2022/08/22 01:07:17;;;;;;;16.10;10.50;;;;;;;22.35;100.00;100767.13;2047623;29;20192;-68
2022/08/22 01:08:42;;;;;;;20.10;10.70;;;;;;;22.11;100.00;100732.97;2053368;28;20187;-68
2022/08/22 01:10:15;;;;;;;18.00;10.50;;;;;;;22.32;100.00;100768.91;2055989;28;20175;-68
2022/08/22 01:11:31;;;;;;;15.43;11.63;;;;;;;21.80;100.00;100688.72;2049109;28;20230;-69
2022/08/22 01:12:31;;;;;;;12.90;11.10;;;;;;;22.31;100.00;100772.28;2056871;28;20213;-69
2022/08/22 01:14:13;;;;;;;13.33;9.77;;;;;;;22.29;100.00;100775.59;2056276;28;20187;-69
2022/08/22 01:15:23;;;;;;;13.13;10.37;;;;;;;22.34;100.00;100779.72;2045927;28;20199;-69
2022/08/22 01:16:33;;;;;;;16.43;11.03;;;;;;;22.34;100.00;100771.25;2056157;28;20203;-68
2022/08/22 01:17:46;;;;;;;14.37;10.97;;;;;;;22.35;100.00;100784.84;2056999;28;20479;-70
2022/08/22 01:19:17;;;;;;;15.20;11.20;;;;;;;22.37;100.00;100784.34;2055977;28;20462;-68
2022/08/22 01:20:42;;;;;;;13.13;10.50;;;;;;;22.38;100.00;100783.84;2056761;28;20187;-68
2022/08/22 01:21:53;;;;;;;15.10;10.40;;;;;;;22.40;100.00;100789.75;2056709;28;20235;-68
2022/08/22 01:22:54;;;;;;;16.87;10.63;;;;;;;22.41;100.00;100788.44;2056834;28;20184;-69
2022/08/22 01:24:22;;;;;;;11.67;9.97;;;;;;;22.25;100.00;100765.81;2047410;29;20274;-69
2022/08/22 01:25:32;;;;;;;13.87;9.97;;;;;;;22.42;100.00;100786.41;2042214;29;20207;-68
2022/08/22 01:26:54;;;;;;;15.90;10.03;;;;;;;22.44;100.00;100783.84;2049717;28;20190;-69
2022/08/22 01:28:28;;;;;;;10.37;8.80;;;;;;;22.41;100.00;100779.97;2056539;28;20201;-68
2022/08/22 01:29:28;;;;;;;12.13;9.73;;;;;;;22.35;100.00;100776.38;2056469;28;20203;-68
2022/08/22 01:31:06;;;;;;;11.13;10.03;;;;;;;22.40;100.00;100769.19;2047785;29;20250;-68
2022/08/22 01:32:30;;;;;;;11.17;9.70;;;;;;;22.02;100.00;100717.03;2052884;28;20244;-68
2022/08/22 01:33:45;;;;;;;12.03;9.70;;;;;;;22.43;100.00;100777.44;2056907;28;20233;-68
2022/08/22 01:35:23;;;;;;;10.73;9.63;;;;;;;22.30;100.00;100767.88;2039296;29;20227;-68
2022/08/22 01:36:32;;;;;;;12.53;9.57;;;;;;;22.31;100.00;100772.28;2052412;28;20295;-68
2022/08/22 01:38:09;;;;;;;11.93;9.83;;;;;;;22.36;100.00;100768.69;2056830;28;20205;-68
2022/08/22 01:39:35;;;;;;;10.93;9.70;;;;;;;22.36;100.00;100768.69;2056183;28;20426;-69
2022/08/22 01:40:57;;;;;;;14.07;9.47;;;;;;;22.40;100.00;100772.03;2056485;28;20877;-68
2022/08/22 01:42:13;;;;;;;13.33;9.43;;;;;;;22.44;100.00;100781.84;2056800;28;20281;-68
2022/08/22 01:43:32;;;;;;;12.13;8.87;;;;;;;22.51;100.00;100775.66;2056504;28;20203;-68
2022/08/22 01:44:47;;;;;;;17.67;10.00;;;;;;;22.52;100.00;100773.63;2056822;28;20216;-69
2022/08/22 01:46:16;;;;;;;11.20;10.00;;;;;;;22.52;100.00;100776.47;2055603;28;20425;-69
2022/08/22 01:47:21;;;;;;;13.63;9.70;;;;;;;22.50;100.00;100782.59;2055739;28;20414;-68
2022/08/22 01:48:44;;;;;;;14.63;9.60;;;;;;;22.52;100.00;100784.94;2057546;28;20181;-68
2022/08/22 01:49:56;;;;;;;14.07;10.20;;;;;;;22.55;100.00;100776.19;2056484;28;20187;-68
2022/08/22 01:51:12;;;;;;;11.17;9.87;;;;;;;22.55;100.00;100773.38;2056740;28;20198;-68
2022/08/22 01:52:50;;;;;;;16.53;9.50;;;;;;;22.53;100.00;100769.53;2056630;28;20675;-68
2022/08/22 01:54:04;;;;;;;10.83;9.73;;;;;;;22.51;100.00;100770.03;2055952;28;20202;-69
2022/08/22 01:55:13;;;;;;;12.67;9.67;;;;;;;22.52;100.00;100770.81;2055285;28;20742;-69
2022/08/22 01:56:20;;;;;;;11.20;10.10;;;;;;;22.01;100.00;100706.25;2055745;28;20178;-69
2022/08/22 01:57:22;;;;;;;13.17;9.50;;;;;;;22.58;100.00;100769.53;2056073;28;20892;-68
2022/08/22 01:58:27;;;;;;;13.87;9.57;;;;;;;22.57;100.00;100770.81;2056662;28;20434;-68
2022/08/22 01:59:38;;;;;;;12.53;10.07;;;;;;;22.56;100.00;100766.44;2056428;28;20446;-68
2022/08/22 02:01:10;;;;;;;11.90;10.27;;;;;;;22.58;100.00;100765.94;2056390;28;20535;-69
2022/08/22 02:02:32;;;;;;;11.13;10.03;;;;;;;22.54;100.00;100763.38;2056685;28;20422;-69
2022/08/22 02:03:38;;;;;;;13.77;10.70;;;;;;;22.50;100.00;100762.06;2047711;28;20454;-68
2022/08/22 02:04:43;;;;;;;11.10;10.00;;;;;;;22.53;100.00;100763.88;2040606;29;20451;-68
2022/08/22 02:06:16;;;;;;;12.67;10.40;;;;;;;22.58;100.00;100760.28;2047097;28;20481;-68
2022/08/22 02:07:23;;;;;;;14.20;10.93;;;;;;;22.44;100.00;100745.13;2047298;28;22254;-68
2022/08/22 02:08:35;;;;;;;14.33;11.00;;;;;;;22.60;100.00;100760.53;2055074;28;20270;-69
2022/08/22 02:09:39;;;;;;;13.57;10.87;;;;;;;22.60;100.00;100760.53;2057097;28;20599;-68
2022/08/22 02:11:01;;;;;;;13.20;10.40;;;;;;;22.43;100.00;100726.63;2056930;28;20676;-69
2022/08/22 02:12:23;;;;;;;11.33;9.73;;;;;;;22.42;100.00;100732.75;2047916;29;20302;-69
2022/08/22 02:13:53;;;;;;;12.03;10.73;;;;;;;22.60;100.00;100752.84;2049977;28;20174;-68
2022/08/22 02:14:54;;;;;;;11.73;10.50;;;;;;;22.57;100.00;100747.44;2040336;29;20232;-68
2022/08/22 02:16:19;;;;;;;14.97;9.40;;;;;;;22.58;100.00;100751.81;2046748;28;20232;-68
2022/08/22 02:17:28;;;;;;;11.80;10.50;;;;;;;22.51;100.00;100741.03;2055866;28;20210;-69
2022/08/22 02:18:49;;;;;;;11.73;9.83;;;;;;;22.25;100.00;100726.28;2055976;28;20191;-69
2022/08/22 02:20:18;;;;;;;11.43;10.33;;;;;;;22.52;100.00;100736.91;2056420;28;20194;-68
2022/08/22 02:21:38;;;;;;;13.83;10.23;;;;;;;22.49;100.00;100741.53;2056482;28;20222;-69
2022/08/22 02:22:56;;;;;;;11.87;10.73;;;;;;;22.48;100.00;100737.19;2055883;28;20265;-69
2022/08/22 02:24:02;;;;;;;12.00;10.90;;;;;;;22.51;100.00;100736.13;2055562;28;20183;-68
2022/08/22 02:25:15;;;;;;;11.60;10.37;;;;;;;22.53;100.00;100738.44;2055669;28;20266;-69
2022/08/22 02:26:38;;;;;;;11.60;10.50;;;;;;;22.56;100.00;100735.38;2046297;29;20216;-68
2022/08/22 02:28:04;;;;;;;12.00;10.30;;;;;;;22.57;100.00;100738.97;2050763;28;20179;-68
2022/08/22 02:29:21;;;;;;;13.40;10.97;;;;;;;22.54;100.00;100734.34;2056006;28;20648;-69
2022/08/22 02:30:44;;;;;;;12.90;11.10;;;;;;;22.54;100.00;100735.13;2055662;28;20692;-68
2022/08/22 02:31:56;;;;;;;11.73;10.60;;;;;;;22.54;100.00;100726.66;2056061;28;20183;-69
2022/08/22 02:33:01;;;;;;;12.80;11.50;;;;;;;22.24;100.00;100683.19;2056193;28;20179;-69
2022/08/22 02:34:19;;;;;;;12.83;10.90;;;;;;;22.14;100.00;100664.19;2056019;28;20214;-69
2022/08/22 02:35:41;;;;;;;12.33;11.10;;;;;;;22.57;100.00;100733.31;2038507;29;20673;-68
2022/08/22 02:36:53;;;;;;;12.20;11.00;;;;;;;22.51;100.00;100716.38;2042553;28;20199;-68
2022/08/22 02:38:12;;;;;;;12.97;11.20;;;;;;;22.59;100.00;100733.56;2048103;29;20246;-69
2022/08/22 02:39:28;;;;;;;12.67;11.47;;;;;;;22.58;100.00;100727.16;2049157;28;20661;-69
2022/08/22 02:40:40;;;;;;;13.13;11.53;;;;;;;22.57;100.00;100733.31;2048048;29;20191;-69
2022/08/22 02:42:18;;;;;;;13.93;11.43;;;;;;;22.52;100.00;100734.09;2039460;29;20745;-69
2022/08/22 02:43:58;;;;;;;12.67;11.37;;;;;;;22.49;100.00;100735.88;2043930;29;20712;-68
2022/08/22 02:45:10;;;;;;;12.47;10.93;;;;;;;22.47;100.00;100741.25;2029263;29;20698;-68
2022/08/22 02:46:27;;;;;;;13.03;10.93;;;;;;;22.05;100.00;100665.19;2038372;29;20448;-68
2022/08/22 02:47:55;;;;;;;13.20;11.73;;;;;;;22.43;100.00;100734.31;2042766;29;20459;-69
2022/08/22 02:49:11;;;;;;;12.67;11.33;;;;;;;22.36;100.00;100734.81;2041417;29;20192;-69
2022/08/22 02:50:20;;;;;;;14.97;11.23;;;;;;;22.30;100.00;100731.97;2048213;29;20180;-68
2022/08/22 02:51:26;;;;;;;13.07;11.60;;;;;;;22.27;100.00;100735.03;2048391;29;20191;-69
2022/08/22 02:52:52;;;;;;;12.40;11.20;;;;;;;22.26;100.00;100725.03;2047915;29;20198;-68
2022/08/22 02:53:56;;;;;;;14.67;11.43;;;;;;;22.29;100.00;100730.44;2039647;29;20200;-69
2022/08/22 02:55:00;;;;;;;12.23;11.07;;;;;;;22.28;100.00;100733.75;2047390;29;20256;-68
2022/08/22 02:56:34;;;;;;;14.30;12.07;;;;;;;22.28;100.00;100747.88;2047133;29;20184;-68
2022/08/22 02:57:52;;;;;;;14.43;11.63;;;;;;;22.31;100.00;100741.22;2044025;29;20207;-68
2022/08/22 02:58:58;;;;;;;15.33;11.90;;;;;;;22.28;100.00;100739.41;2048579;28;20222;-69
2022/08/22 03:00:17;;;;;;;14.43;11.10;;;;;;;22.12;100.00;100728.84;2048822;28;20191;-69
2022/08/22 03:01:28;;;;;;;12.77;11.50;;;;;;;22.11;100.00;100728.06;2040368;29;20196;-68
2022/08/22 03:02:34;;;;;;;14.03;11.83;;;;;;;22.34;100.00;100743.78;2042173;29;20818;-69
2022/08/22 03:03:39;;;;;;;13.07;11.77;;;;;;;22.37;100.00;100745.56;2047224;29;20215;-69
2022/08/22 03:04:40;;;;;;;16.87;12.17;;;;;;;22.40;100.00;100750.22;2039200;29;20204;-69
2022/08/22 03:05:58;;;;;;;16.70;11.73;;;;;;;22.42;100.00;100756.09;2038372;29;20207;-68
2022/08/22 03:07:19;;;;;;;13.70;12.07;;;;;;;22.40;100.00;100747.38;2048192;28;20183;-69
2022/08/22 03:08:30;;;;;;;13.17;11.83;;;;;;;21.98;100.00;100705.22;2047189;29;20242;-69
2022/08/22 03:09:37;;;;;;;13.03;11.63;;;;;;;22.42;100.00;100750.47;2048092;29;20581;-68
2022/08/22 03:10:46;;;;;;;12.17;10.97;;;;;;;22.42;100.00;100746.88;2047862;28;20226;-69
2022/08/22 03:12:08;;;;;;;12.77;11.57;;;;;;;22.43;100.00;100749.19;2047739;28;20200;-69
2022/08/22 03:13:12;;;;;;;12.90;11.60;;;;;;;22.46;100.00;100747.44;2048038;29;20182;-69
2022/08/22 03:14:23;;;;;;;13.13;11.83;;;;;;;22.22;100.00;100704.75;2048006;28;20200;-69
2022/08/22 03:15:39;;;;;;;12.80;11.33;;;;;;;22.50;100.00;100745.91;2046811;29;20258;-69
2022/08/22 03:16:52;;;;;;;13.57;11.93;;;;;;;22.56;100.00;100743.84;2047540;29;20219;-69
2022/08/22 03:18:20;;;;;;;13.93;12.43;;;;;;;22.19;100.00;100691.66;2047625;29;20188;-68
2022/08/22 03:19:29;;;;;;;13.63;11.73;;;;;;;22.61;100.00;100750.81;2039077;29;21263;-69
2022/08/22 03:20:53;;;;;;;13.97;11.23;;;;;;;22.59;100.00;100742.84;2040528;29;20219;-68
2022/08/22 03:22:06;;;;;;;13.90;12.50;;;;;;;22.59;100.00;100745.66;2047988;29;20187;-69
2022/08/22 03:23:25;;;;;;;13.50;12.20;;;;;;;22.60;100.00;100743.59;2048958;28;20226;-69
2022/08/22 03:24:45;;;;;;;13.87;11.70;;;;;;;22.06;100.00;100666.72;2047716;29;20211;-68
2022/08/22 03:25:57;;;;;;;13.43;12.03;;;;;;;22.63;100.00;100756.69;2038462;29;20627;-68
2022/08/22 03:27:05;;;;;;;13.47;12.17;;;;;;;22.62;100.00;100744.63;2040391;29;20431;-69
2022/08/22 03:28:12;;;;;;;13.50;11.80;;;;;;;22.24;100.00;100686.03;2047689;29;20176;-68
2022/08/22 03:29:23;;;;;;;12.83;11.53;;;;;;;22.64;100.00;100747.72;2047367;29;20186;-69
2022/08/22 03:30:36;;;;;;;15.77;12.13;;;;;;;22.65;100.00;100745.66;2047314;29;20270;-69
2022/08/22 03:31:47;;;;;;;13.13;11.83;;;;;;;22.67;100.00;100743.09;2047834;29;20624;-69
2022/08/22 03:33:16;;;;;;;12.63;11.27;;;;;;;22.61;100.00;100740.25;2047899;29;20191;-68
2022/08/22 03:34:23;;;;;;;13.87;12.23;;;;;;;22.65;100.00;100743.59;2047360;28;20203;-68
2022/08/22 03:35:56;;;;;;;14.17;11.97;;;;;;;22.64;100.00;100747.72;2045431;28;20188;-69
2022/08/22 03:37:08;;;;;;;12.57;11.37;;;;;;;22.67;100.00;100740.28;2047335;28;20195;-69
2022/08/22 03:38:32;;;;;;;12.90;11.60;;;;;;;22.69;100.00;100743.34;2055896;28;20233;-69
2022/08/22 03:39:50;;;;;;;15.90;12.20;;;;;;;22.64;100.00;100742.06;2015789;29;20215;-69
2022/08/22 03:41:33;;;;;;;14.03;12.57;;;;;;;22.63;100.00;100743.31;2049240;28;20183;-69
2022/08/22 03:42:48;;;;;;;12.77;11.47;;;;;;;22.58;100.00;100729.22;2055818;28;20682;-69
2022/08/22 03:44:13;;;;;;;13.43;12.13;;;;;;;22.56;100.00;100738.19;2055127;28;20660;-69
2022/08/22 03:45:57;;;;;;;13.53;12.23;;;;;;;22.61;100.00;100736.69;2055239;28;20616;-68
2022/08/22 03:47:00;;;;;;;14.77;12.27;;;;;;;22.62;100.00;100732.56;2038138;29;20208;-69
2022/08/22 03:48:25;;;;;;;14.77;13.20;;;;;;;22.60;100.00;100741.53;2050797;28;20588;-69
2022/08/22 03:49:35;;;;;;;14.93;12.40;;;;;;;22.57;100.00;100736.16;2055877;28;20194;-69
2022/08/22 03:51:12;;;;;;;15.07;13.03;;;;;;;22.53;100.00;100744.09;2055001;28;20270;-69
2022/08/22 03:52:25;;;;;;;18.67;12.33;;;;;;;22.52;100.00;100743.31;2054957;28;20261;-69
2022/08/22 03:53:57;;;;;;;17.43;12.83;;;;;;;22.45;100.00;100743.06;2055005;28;20217;-68
2022/08/22 03:55:29;;;;;;;16.00;12.20;;;;;;;22.42;100.00;100744.06;2054890;28;20183;-69
2022/08/22 03:56:33;;;;;;;14.47;12.93;;;;;;;22.43;100.00;100743.56;2054713;28;20195;-69
2022/08/22 03:57:46;;;;;;;15.63;13.53;;;;;;;22.40;100.00;100750.22;2055035;28;20623;-69
2022/08/22 03:58:52;;;;;;;15.07;12.63;;;;;;;22.42;100.00;100749.72;2049127;28;20612;-69
2022/08/22 04:00:24;;;;;;;13.80;12.40;;;;;;;22.18;100.00;100715.50;2055639;28;20191;-68
2022/08/22 04:02:06;;;;;;;15.80;12.40;;;;;;;22.43;100.00;100754.06;2055828;28;20171;-69
2022/08/22 04:03:18;;;;;;;14.43;12.83;;;;;;;22.45;100.00;100751.53;2027732;28;20220;-69
2022/08/22 04:04:45;;;;;;;15.23;12.93;;;;;;;21.89;100.00;100676.44;2055200;28;20218;-68
2022/08/22 04:06:11;;;;;;;15.53;12.03;;;;;;;22.48;100.00;100754.13;2054437;28;20202;-70
2022/08/22 04:07:46;;;;;;;14.97;12.90;;;;;;;22.47;100.00;100757.44;2054576;28;20652;-69
2022/08/22 04:09:15;;;;;;;14.63;12.63;;;;;;;22.50;100.00;100757.19;2055880;28;20186;-69
2022/08/22 04:10:28;;;;;;;15.67;13.93;;;;;;;22.54;100.00;100756.94;2055549;28;20194;-69
2022/08/22 04:12:12;;;;;;;14.90;13.40;;;;;;;22.57;100.00;100750.28;2056186;28;20193;-69
2022/08/22 04:13:24;;;;;;;15.97;13.27;;;;;;;22.58;100.00;100760.28;2046978;28;20191;-68
2022/08/22 04:14:49;;;;;;;16.93;13.63;;;;;;;22.61;100.00;100760.03;2054647;28;20260;-68
2022/08/22 04:16:29;;;;;;;16.30;13.87;;;;;;;22.65;100.00;100766.19;2054605;28;20485;-69
2022/08/22 04:17:48;;;;;;;17.53;14.63;;;;;;;21.81;100.00;100636.66;2046834;29;20661;-68
2022/08/22 04:19:06;;;;;;;19.00;16.10;;;;;;;22.66;100.00;100769.78;2049747;28;20171;-69
2022/08/22 04:20:32;;;;;;;22.73;14.93;;;;;;;22.66;100.00;100761.31;2055577;28;20185;-69
2022/08/22 04:21:52;;;;;;;16.23;14.37;;;;;;;22.70;100.00;100765.44;2052467;28;20278;-68
2022/08/22 04:23:20;;;;;;;17.60;14.10;;;;;;;22.70;100.00;100767.47;2048550;28;20662;-69
2022/08/22 04:24:37;;;;;;;17.70;13.83;;;;;;;22.73;100.00;100774.94;2055596;28;20254;-69
2022/08/22 04:25:46;;;;;;;16.37;13.60;;;;;;;22.78;100.00;100771.34;2044283;29;20225;-68
2022/08/22 04:26:50;;;;;;;16.70;13.93;;;;;;;22.82;100.00;100769.03;2047811;28;20629;-68
2022/08/22 04:28:04;;;;;;;16.53;13.97;;;;;;;22.29;100.00;100696.56;2052566;28;20549;-69
2022/08/22 04:29:15;;;;;;;18.63;13.97;;;;;;;22.86;100.00;100775.19;2055171;28;20648;-68
2022/08/22 04:30:15;;;;;;;15.53;13.13;;;;;;;22.90;100.00;100772.88;2055135;28;20186;-68
2022/08/22 04:31:31;;;;;;;15.77;13.37;;;;;;;22.75;100.00;100758.22;2056326;28;20187;-68
2022/08/22 04:33:02;;;;;;;17.87;13.23;;;;;;;22.85;100.00;100760.31;2056065;28;20266;-68
2022/08/22 04:34:14;;;;;;;16.07;13.20;;;;;;;22.88;100.00;100758.50;2041002;28;20242;-68
2022/08/22 04:35:30;;;;;;;17.43;13.23;;;;;;;22.96;100.00;100773.66;2052139;28;20611;-68
2022/08/22 04:36:38;;;;;;;15.80;13.10;;;;;;;22.91;100.00;100761.06;2056377;28;20190;-68
2022/08/22 04:37:55;;;;;;;15.60;13.47;;;;;;;22.87;100.00;100766.19;2056224;28;20228;-68
2022/08/22 04:39:04;;;;;;;15.07;13.40;;;;;;;22.41;100.00;100692.44;2047343;28;20195;-68
2022/08/22 04:40:13;;;;;;;16.43;12.40;;;;;;;22.97;100.00;100772.38;2050149;28;20245;-68
2022/08/22 04:41:15;;;;;;;15.37;13.87;;;;;;;22.97;100.00;100778.03;2058005;28;20230;-69
2022/08/22 04:42:39;;;;;;;16.43;13.27;;;;;;;23.03;100.00;100775.97;2057701;28;20269;-68
2022/08/22 04:44:23;;;;;;;15.13;13.23;;;;;;;23.05;100.00;100777.00;2056308;28;20273;-69
2022/08/22 04:45:30;;;;;;;17.43;15.47;;;;;;;23.10;100.00;100775.44;2055006;28;20189;-68
2022/08/22 04:46:43;;;;;;;15.10;13.50;;;;;;;23.11;100.00;100772.13;2057056;28;20575;-68
2022/08/22 04:48:06;;;;;;;17.13;13.93;;;;;;;23.16;100.00;100776.22;2056701;28;20233;-68
2022/08/22 04:49:19;;;;;;;14.47;13.07;;;;;;;23.17;100.00;100772.88;2056833;28;20245;-68
2022/08/22 04:51:04;;;;;;;14.63;13.13;;;;;;;23.18;100.00;100765.97;2056645;28;20241;-68
2022/08/22 04:52:17;;;;;;;15.03;13.43;;;;;;;23.20;100.00;100765.44;2023517;29;20280;-69
2022/08/22 04:53:24;;;;;;;15.27;13.30;;;;;;;;;;2056124;28;20632;-69
2022/08/22 04:55:15;;;;;;;14.57;13.03;;;;;;;23.25;100.00;100773.94;2056089;28;20258;-69
2022/08/22 04:56:57;;;;;;;15.17;13.67;;;;;;;23.28;100.00;100769.31;2021958;29;20457;-68
2022/08/22 04:58:23;;;;;;;14.40;12.90;;;;;;;23.28;100.00;100770.06;2056610;28;20190;-68
2022/08/22 04:59:25;;;;;;;14.40;12.97;;;;;;;23.34;100.00;100772.91;2056947;28;20322;-68
2022/08/22 05:00:41;;;;;;;17.10;12.87;;;;;;;23.31;100.00;100771.88;2046400;28;20206;-68
2022/08/22 05:01:57;;;;;;;16.63;13.97;;;;;;;23.37;100.00;100777.50;2053416;28;20995;-68
2022/08/22 05:03:01;;;;;;;15.23;13.63;;;;;;;23.35;100.00;100774.44;2051967;28;20269;-68
2022/08/22 05:04:07;;;;;;;14.73;13.23;;;;;;;23.42;100.00;100788.81;2052782;28;20594;-68
2022/08/22 05:05:14;;;;;;;15.07;13.17;;;;;;;22.95;100.00;100704.28;2052906;28;20175;-68
2022/08/22 05:06:18;;;;;;;15.40;13.60;;;;;;;23.50;100.00;100789.06;2054336;28;20702;-68
2022/08/22 05:07:28;;;;;;;15.67;13.60;;;;;;;23.29;100.00;100756.72;2046610;28;20436;-68
2022/08/22 05:08:33;;;;;;;15.10;13.70;;;;;;;23.53;100.00;100794.44;2048086;28;21684;-68
2022/08/22 05:09:42;;;;;;;15.90;14.30;;;;;;;23.53;100.00;100802.94;2053129;28;20688;-68
2022/08/22 05:10:45;;;;;;;15.47;14.03;;;;;;;23.48;100.00;100789.56;2045452;28;20778;-68
2022/08/22 05:11:51;;;;;;;16.37;14.03;;;;;;;23.55;100.00;100802.41;2046195;28;20554;-68
2022/08/22 05:13:06;;;;;;;15.50;13.80;;;;;;;23.00;100.00;100718.44;2054037;28;20211;-68
2022/08/22 05:14:36;;;;;;;16.63;14.33;;;;;;;23.48;100.00;100814.25;2054450;28;20229;-68
2022/08/22 05:15:41;;;;;;;16.60;14.80;;;;;;;23.04;100.00;100750.03;2051868;28;20762;-68
2022/08/22 05:16:48;;;;;;;17.67;15.77;;;;;;;23.36;100.00;100804.25;2053863;28;20450;-68
2022/08/22 05:17:51;;;;;;;20.47;17.07;;;;;;;23.32;100.00;100809.38;2054723;28;20713;-68
2022/08/22 05:19:04;;;;;;;20.60;16.83;;;;;;;23.27;100.00;100824.28;2054081;28;20209;-68
2022/08/22 05:20:10;;;;;;;19.60;17.23;;;;;;;23.36;100.00;100809.91;2054852;28;20199;-68
2022/08/22 05:21:12;;;;;;;19.53;17.53;;;;;;;23.39;100.00;100806.06;2053797;28;20218;-68
2022/08/22 05:22:22;;;;;;;17.30;15.40;;;;;;;23.41;100.00;100817.59;2055052;28;20197;-68
2022/08/22 05:23:29;;;;;;;16.33;14.67;;;;;;;23.46;100.00;100814.78;2054050;28;20591;-68
2022/08/22 05:24:41;;;;;;;15.93;14.33;;;;;;;23.52;100.00;100818.38;2052894;28;20290;-68
2022/08/22 05:25:44;;;;;;;15.53;13.97;;;;;;;23.58;100.00;100813.47;2053511;28;20179;-68
2022/08/22 05:26:49;;;;;;;17.03;14.97;;;;;;;23.60;100.00;100819.38;2055463;28;20193;-68
2022/08/22 05:28:22;;;;;;;16.67;14.90;;;;;;;23.61;100.00;100818.09;2054711;28;20209;-68
2022/08/22 05:29:29;;;;;;;17.10;15.30;;;;;;;23.11;100.00;100752.31;2055272;28;20610;-68
2022/08/22 05:30:32;;;;;;;17.17;15.07;;;;;;;23.58;100.00;100813.47;2056478;28;20178;-68
2022/08/22 05:31:44;;;;;;;17.90;15.07;;;;;;;23.35;100.00;100783.69;2055470;28;20201;-68
2022/08/22 05:32:54;;;;;;;17.30;15.50;;;;;;;23.64;100.00;100822.72;2056040;28;20470;-68
2022/08/22 05:34:10;;;;;;;17.13;15.43;;;;;;;23.67;100.00;100818.84;2053217;28;20213;-68
2022/08/22 05:35:10;;;;;;;16.50;14.90;;;;;;;23.23;100.00;100753.13;2046299;28;20712;-68
2022/08/22 05:36:19;;;;;;;19.07;16.83;;;;;;;23.52;100.00;100801.41;2045117;28;20598;-68
2022/08/22 05:37:24;;;;;;;19.97;17.17;;;;;;;23.73;100.00;100828.09;2046600;28;20207;-68
2022/08/22 05:38:30;;;;;;;18.23;16.30;;;;;;;23.65;100.00;100812.94;2047372;28;20235;-68
2022/08/22 05:39:32;;;;;;;18.03;15.33;;;;;;;23.28;100.00;100749.53;2045576;28;20575;-68
2022/08/22 05:40:36;;;;;;;16.60;14.93;;;;;;;23.80;100.00;100826.81;2045710;28;20187;-68
2022/08/22 05:41:38;;;;;;;16.17;14.53;;;;;;;23.85;100.00;100832.44;2038034;28;20283;-68
2022/08/22 05:42:38;;;;;;;14.73;13.23;;;;;;;23.41;100.00;100759.00;2039521;29;20210;-68
2022/08/22 05:43:42;;;;;;;17.03;15.23;;;;;;;23.90;100.00;100825.25;2045892;28;20219;-68
2022/08/22 05:44:42;;;;;;;16.77;15.17;;;;;;;23.68;100.00;100788.50;2045738;28;20195;-69
2022/08/22 05:45:46;;;;;;;18.73;15.70;;;;;;;23.96;100.00;100826.75;2045637;28;20700;-68
2022/08/22 05:46:59;;;;;;;18.23;16.37;;;;;;;24.04;100.00;100829.81;2045693;28;20807;-68